Time;durP1;ratioP1;P1;durP2;ratioP2;P2;SDS_P1;SDS_P2;PMS_P1;PMS_P2;Temp;Humidity;BMP_temperature;BMP_pressure;BME280_temperature;BME280_humidity;BME280_pressure;Samples;Min_cycle;Max_cycle;Signal;HPM_P1;HPM_P2
2023/07/01 00:02:05;;;;;;;4.93;2.40;;;;;;;18.21;53.76;100729.41;5016573;28;20121;-62
2023/07/01 00:04:30;;;;;;;7.88;2.65;;;;;;;18.21;53.68;100731.19;5017448;28;20026;-62
2023/07/01 00:06:56;;;;;;;5.93;2.53;;;;;;;18.22;54.22;100723.25;5016809;28;20451;-62
2023/07/01 00:09:22;;;;;;;4.88;2.50;;;;;;;18.18;53.78;100721.53;5016994;28;20037;-62
2023/07/01 00:11:48;;;;;;;6.13;2.42;;;;;;;18.18;54.02;100718.03;5017979;28;20029;-62
2023/07/01 00:14:13;;;;;;;6.95;2.70;;;;;;;18.16;54.10;100711.88;5016736;28;20041;-62
2023/07/01 00:16:39;;;;;;;4.95;2.40;;;;;;;18.15;54.03;100707.50;5016803;28;20031;-62
2023/07/01 00:19:05;;;;;;;5.65;2.30;;;;;;;18.15;54.22;100705.75;5016340;28;20053;-62
2023/07/01 00:21:31;;;;;;;6.20;2.40;;;;;;;18.16;54.57;100693.41;5017218;28;20079;-62
2023/07/01 00:23:56;;;;;;;4.85;2.53;;;;;;;18.13;54.40;100696.94;5017455;28;20021;-62
2023/07/01 00:26:21;;;;;;;6.88;2.55;;;;;;;18.14;54.28;100692.56;5017372;28;20046;-62
2023/07/01 00:28:46;;;;;;;5.50;2.30;;;;;;;18.12;54.66;100689.06;5017305;28;20196;-62
2023/07/01 00:31:12;;;;;;;5.22;2.70;;;;;;;18.08;55.71;100680.31;5017115;28;20040;-63
2023/07/01 00:33:37;;;;;;;5.90;2.70;;;;;;;18.09;54.91;100682.06;5001752;28;20084;-62
2023/07/01 00:36:02;;;;;;;5.68;2.80;;;;;;;18.11;55.71;100682.06;5017393;28;20503;-62
2023/07/01 00:38:28;;;;;;;7.95;2.97;;;;;;;18.08;55.55;100677.69;5015979;28;20103;-62
2023/07/01 00:40:53;;;;;;;6.78;2.55;;;;;;;18.06;55.53;100668.91;5015456;28;20021;-62
2023/07/01 00:43:18;;;;;;;6.55;2.75;;;;;;;18.03;56.07;100663.66;5016212;28;20030;-62
2023/07/01 00:45:44;;;;;;;5.93;2.60;;;;;;;18.02;56.00;100667.22;5016032;28;20588;-62
2023/07/01 00:48:26;;;;;;;6.82;2.80;;;;;;;18.03;56.59;100653.13;5015102;28;20022;-62
2023/07/01 00:50:52;;;;;;;7.03;2.63;;;;;;;18.01;56.61;100658.41;5016349;28;20018;-62
2023/07/01 00:53:18;;;;;;;6.88;2.90;;;;;;;18.01;56.99;100654.91;5016781;28;20500;-62
2023/07/01 00:55:43;;;;;;;5.45;2.50;;;;;;;18.00;56.69;100655.78;5016149;28;20112;-62
2023/07/01 00:58:09;;;;;;;6.28;2.47;;;;;;;18.03;57.06;100651.38;5017104;28;20040;-62
2023/07/01 01:00:34;;;;;;;6.38;2.60;;;;;;;18.04;56.81;100653.09;5016398;28;20052;-62
2023/07/01 01:03:22;;;;;;;5.30;2.80;;;;;;;18.03;57.56;100647.84;5015924;28;20034;-62
2023/07/01 01:06:07;;;;;;;8.18;3.22;;;;;;;17.98;58.55;100650.53;5016598;28;20034;-62
2023/07/01 01:08:57;;;;;;;6.32;2.97;;;;;;;17.95;58.22;100645.28;5016855;28;20493;-62
2023/07/01 01:11:25;;;;;;;3.92;2.55;;;;;;;17.99;58.78;100640.88;5016541;28;20100;-62
2023/07/01 01:13:51;;;;;;;7.35;2.58;;;;;;;17.96;58.89;100630.34;5016591;28;20087;-61
2023/07/01 01:16:17;;;;;;;6.65;3.03;;;;;;;17.99;58.99;100632.97;5016438;28;20036;-61
2023/07/01 01:18:43;;;;;;;5.80;3.08;;;;;;;17.97;59.75;100634.72;5015216;28;20033;-60
2023/07/01 01:21:13;;;;;;;4.45;2.65;;;;;;;17.97;59.46;100627.69;5016680;28;20397;-60
2023/07/01 01:23:44;;;;;;;5.68;3.03;;;;;;;17.96;59.93;100631.22;5000065;28;20026;-60
2023/07/01 01:26:18;;;;;;;8.68;3.15;;;;;;;17.96;59.42;100625.06;4998967;28;20029;-60
2023/07/01 01:28:43;;;;;;;7.78;2.88;;;;;;;17.92;60.30;100624.25;5015307;28;20025;-60
2023/07/01 01:31:11;;;;;;;9.13;2.83;;;;;;;17.94;60.22;100617.19;5014957;28;20551;-60
2023/07/01 01:33:37;;;;;;;6.50;3.05;;;;;;;17.96;60.20;100617.16;5015161;28;20155;-60
2023/07/01 01:36:13;;;;;;;6.07;2.88;;;;;;;17.90;61.45;100613.72;5015399;28;20485;-61
2023/07/01 01:38:41;;;;;;;6.32;2.83;;;;;;;17.88;61.82;100606.66;5067422;23;20053;-96
2023/07/01 01:41:35;;;;;;;;;;;;;;;;;;;;;
2023/07/01 01:44:15;;;;;;;6.78;2.80;;;;;;;17.90;62.35;100605.81;5032970;28;20030;-96
2023/07/01 01:46:51;;;;;;;8.30;2.92;;;;;;;17.88;61.77;100607.53;5014664;28;20025;-96
2023/07/01 01:49:38;;;;;;;8.05;2.97;;;;;;;17.88;63.05;100597.00;5010249;28;20030;-96
2023/07/01 01:52:14;;;;;;;;;;;;;;;;;;;;;
2023/07/01 01:55:08;;;;;;;4.82;2.85;;;;;;;17.86;63.55;100596.16;5028944;28;20112;-96
2023/07/01 01:57:43;;;;;;;6.40;3.10;;;;;;;17.83;64.38;100593.53;5016045;28;20454;-96
2023/07/01 02:00:37;;;;;;;9.40;3.20;;;;;;;17.81;64.55;100590.03;5020393;28;20025;-96
2023/07/01 02:03:21;;;;;;;6.10;3.25;;;;;;;17.77;64.15;100587.47;5018269;28;20100;-96
2023/07/01 02:05:51;;;;;;;7.40;2.83;;;;;;;17.80;64.73;100584.78;5015800;28;20033;-96
2023/07/01 02:08:22;;;;;;;6.88;2.88;;;;;;;17.75;65.62;100582.19;5012858;28;20030;-96
2023/07/01 02:11:19;;;;;;;6.07;3.00;;;;;;;17.75;65.25;100582.19;4993928;28;20514;-96
2023/07/01 02:13:58;;;;;;;6.60;2.95;;;;;;;17.79;64.87;100576.00;4995316;28;20520;-96
2023/07/01 02:16:51;;;;;;;;;;;;;;;;;;;;;
2023/07/01 02:19:54;;;;;;;;;;;;;;;;;;;;;
2023/07/01 02:22:30;;;;;;;7.60;3.10;;;;;;;17.70;66.73;100589.28;4988156;28;20119;-96
2023/07/01 02:25:19;;;;;;;4.90;3.10;;;;;;;17.67;67.01;100571.75;4980814;28;20073;-96
2023/07/01 02:27:44;;;;;;;6.68;3.13;;;;;;;17.75;68.43;100568.16;5028775;23;20053;-62
2023/07/01 02:30:10;;;;;;;8.95;3.35;;;;;;;17.67;69.03;100560.31;5161970;23;20060;-62
2023/07/01 02:32:35;;;;;;;6.63;3.50;;;;;;;17.50;70.25;100552.59;4996964;28;20057;-62
2023/07/01 02:35:01;;;;;;;6.45;3.60;;;;;;;17.40;70.17;100551.81;4997560;28;20500;-62
2023/07/01 02:37:26;;;;;;;5.90;3.05;;;;;;;17.40;70.25;100543.91;4994842;28;20088;-61
2023/07/01 02:39:51;;;;;;;8.73;3.50;;;;;;;17.33;70.14;100544.84;4996608;28;20429;-62
2023/07/01 02:42:19;;;;;;;6.80;3.40;;;;;;;17.31;71.54;100544.00;4996108;28;20034;-62
2023/07/01 02:44:48;;;;;;;4.88;2.72;;;;;;;17.21;74.20;100541.44;4996624;28;20027;-62
2023/07/01 02:47:18;;;;;;;6.15;3.08;;;;;;;17.24;76.35;100544.94;4996141;28;20034;-62
2023/07/01 02:49:43;;;;;;;5.72;2.70;;;;;;;17.16;77.49;100542.34;4996099;28;20460;-62
2023/07/01 02:52:10;;;;;;;6.82;3.00;;;;;;;17.13;78.51;100548.53;4996401;28;20116;-62
2023/07/01 02:54:39;;;;;;;5.85;3.00;;;;;;;17.04;79.50;100548.59;4995366;28;20058;-62
2023/07/01 02:57:11;;;;;;;4.78;2.70;;;;;;;16.99;78.02;100534.63;4996350;28;20034;-62
2023/07/01 02:59:37;;;;;;;5.57;2.60;;;;;;;16.90;79.04;100538.19;5015329;28;20022;-62
2023/07/01 03:02:04;;;;;;;6.28;2.92;;;;;;;16.87;82.85;100538.16;5015681;28;20022;-62
2023/07/01 03:04:29;;;;;;;6.65;2.72;;;;;;;16.81;83.31;100520.66;5016292;28;20084;-62
2023/07/01 03:06:54;;;;;;;6.57;3.10;;;;;;;16.78;82.66;100535.59;5016081;28;21241;-62
2023/07/01 03:09:20;;;;;;;6.22;3.10;;;;;;;16.67;85.42;100527.81;5016419;28;20373;-62
2023/07/01 03:11:45;;;;;;;6.03;2.80;;;;;;;16.66;85.51;100534.81;5015211;28;20401;-62
2023/07/01 03:14:12;;;;;;;4.85;2.65;;;;;;;16.63;84.89;100526.94;5016856;28;20075;-62
2023/07/01 03:16:38;;;;;;;5.28;2.90;;;;;;;16.64;85.83;100525.16;5015233;28;20403;-62
2023/07/01 03:19:05;;;;;;;6.35;2.80;;;;;;;16.64;85.92;100519.91;5015546;28;20300;-64
2023/07/01 03:21:30;;;;;;;5.80;2.83;;;;;;;16.60;86.73;100515.56;5016206;28;20030;-62
2023/07/01 03:23:56;;;;;;;6.95;2.90;;;;;;;16.55;87.92;100512.09;5015385;28;20052;-62
2023/07/01 03:26:21;;;;;;;4.63;2.78;;;;;;;16.51;87.52;100509.47;5015254;28;20464;-62
2023/07/01 03:28:46;;;;;;;6.10;2.75;;;;;;;16.46;89.08;100503.38;5015938;28;20043;-62
2023/07/01 03:31:11;;;;;;;4.95;2.90;;;;;;;16.48;88.43;100504.25;5002695;28;20049;-62
2023/07/01 03:33:37;;;;;;;5.30;3.10;;;;;;;16.45;89.01;100500.75;5004240;28;20029;-62
2023/07/01 03:36:03;;;;;;;6.60;2.97;;;;;;;16.49;87.17;100507.72;5003558;28;20022;-62
2023/07/01 03:38:28;;;;;;;5.40;3.20;;;;;;;16.47;88.47;100505.13;4985417;28;20108;-62
2023/07/01 03:40:53;;;;;;;4.88;2.92;;;;;;;16.49;89.20;100503.34;5002971;28;20141;-62
2023/07/01 03:43:19;;;;;;;7.55;3.25;;;;;;;16.39;90.26;100498.16;5003033;28;20037;-62
2023/07/01 03:45:44;;;;;;;5.70;3.05;;;;;;;16.32;90.76;100490.31;5003557;28;20042;-62
2023/07/01 03:48:10;;;;;;;5.70;3.35;;;;;;;16.27;92.68;100489.44;5002913;28;20041;-62
2023/07/01 03:50:35;;;;;;;6.75;3.17;;;;;;;16.25;93.14;100490.34;5003507;28;20034;-62
2023/07/01 03:53:00;;;;;;;7.40;3.20;;;;;;;16.29;93.80;100489.44;5004026;28;20033;-62
2023/07/01 03:55:26;;;;;;;4.97;2.85;;;;;;;16.17;93.70;100499.13;5002385;28;20040;-61
2023/07/01 03:57:51;;;;;;;5.78;3.33;;;;;;;16.10;95.25;100484.28;5001405;28;20549;-61
2023/07/01 04:00:17;;;;;;;5.65;3.60;;;;;;;16.09;95.82;100495.69;5002462;28;20041;-61
2023/07/01 04:02:50;;;;;;;5.78;3.22;;;;;;;16.10;96.69;100486.03;5001862;28;20029;-61
2023/07/01 04:05:16;;;;;;;6.25;3.58;;;;;;;16.08;96.69;100483.44;5002851;28;20034;-61
2023/07/01 04:07:44;;;;;;;7.60;4.05;;;;;;;16.03;98.32;100482.56;5003036;28;20053;-62
2023/07/01 04:10:10;;;;;;;6.18;3.80;;;;;;;15.99;97.79;100481.72;5002653;28;20025;-62
2023/07/01 04:12:38;;;;;;;6.57;3.50;;;;;;;15.98;97.60;100479.09;5002277;28;20026;-62
2023/07/01 04:15:09;;;;;;;7.75;3.80;;;;;;;15.94;100.00;100477.34;5002892;28;21088;-61
2023/07/01 04:17:36;;;;;;;6.30;3.58;;;;;;;15.86;99.87;100468.63;5006080;28;20030;-62
2023/07/01 04:20:03;;;;;;;5.63;3.70;;;;;;;15.87;100.00;100466.00;5006497;28;20405;-61
2023/07/01 04:22:29;;;;;;;6.15;4.10;;;;;;;15.87;100.00;100462.50;5005640;28;20477;-62
2023/07/01 04:24:54;;;;;;;6.97;3.90;;;;;;;15.77;100.00;100459.88;5005167;28;20044;-62
2023/07/01 04:27:19;;;;;;;5.03;3.60;;;;;;;15.71;100.00;100449.38;4987756;28;20037;-62
2023/07/01 04:29:45;;;;;;;6.10;3.95;;;;;;;15.73;100.00;100455.53;5005325;28;20050;-62
2023/07/01 04:32:10;;;;;;;5.35;3.47;;;;;;;15.72;100.00;100451.13;5004959;28;20026;-62
2023/07/01 04:34:36;;;;;;;5.40;3.90;;;;;;;15.73;100.00;100450.28;5005394;28;20029;-62
2023/07/01 04:37:01;;;;;;;4.70;3.38;;;;;;;15.71;100.00;100448.53;5006359;28;20018;-62
2023/07/01 04:39:26;;;;;;;5.22;3.45;;;;;;;15.69;100.00;100442.41;5005813;28;20036;-62
2023/07/01 04:41:52;;;;;;;5.55;3.70;;;;;;;15.64;100.00;100451.19;5005455;28;20021;-62
2023/07/01 04:44:17;;;;;;;7.38;3.80;;;;;;;15.65;100.00;100452.03;4998382;28;20402;-62
2023/07/01 04:46:42;;;;;;;5.68;3.53;;;;;;;15.60;100.00;100445.94;5006364;28;20030;-62
2023/07/01 04:49:10;;;;;;;5.47;3.50;;;;;;;15.57;100.00;100440.69;5007949;28;20378;-62
2023/07/01 04:51:36;;;;;;;5.50;3.90;;;;;;;15.58;100.00;100443.34;5007443;28;20026;-62
2023/07/01 04:54:04;;;;;;;5.22;3.45;;;;;;;15.64;100.00;100431.91;5007866;28;20181;-61
2023/07/01 04:56:29;;;;;;;6.05;3.55;;;;;;;15.60;100.00;100435.44;5007977;28;20014;-62
2023/07/01 04:58:55;;;;;;;4.90;3.67;;;;;;;15.60;100.00;100433.69;5005414;28;20385;-62
2023/07/01 05:01:20;;;;;;;4.72;3.42;;;;;;;15.60;100.00;100430.19;5007869;28;20025;-61
2023/07/01 05:03:45;;;;;;;5.03;3.42;;;;;;;15.60;100.00;100430.19;5008352;28;20026;-61
2023/07/01 05:06:11;;;;;;;5.22;3.83;;;;;;;15.64;100.00;100422.28;5007954;28;20095;-62
2023/07/01 05:08:36;;;;;;;6.00;3.80;;;;;;;15.65;100.00;100421.38;4987003;28;20041;-61
2023/07/01 05:11:02;;;;;;;6.05;4.00;;;;;;;15.65;100.00;100428.41;5007808;28;20030;-61
2023/07/01 05:13:27;;;;;;;5.72;3.72;;;;;;;15.65;100.00;100417.91;5006891;28;20021;-61
2023/07/01 05:15:52;;;;;;;6.97;3.90;;;;;;;15.68;100.00;100425.75;5006129;28;20037;-62
2023/07/01 05:18:17;;;;;;;5.43;4.00;;;;;;;15.68;100.00;100428.38;5007035;28;20036;-62
2023/07/01 05:20:43;;;;;;;4.78;3.30;;;;;;;15.71;100.00;100420.50;5007384;28;20064;-62
2023/07/01 05:23:08;;;;;;;6.28;3.80;;;;;;;15.70;100.00;100418.78;5007784;28;20567;-61
2023/07/01 05:25:33;;;;;;;5.75;3.88;;;;;;;15.75;100.00;100422.22;5007095;28;20026;-62
2023/07/01 05:27:58;;;;;;;7.10;4.25;;;;;;;15.73;100.00;100420.47;5005808;28;20587;-62
2023/07/01 05:30:24;;;;;;;5.60;3.70;;;;;;;15.76;100.00;100416.09;5006199;28;20054;-62
2023/07/01 05:32:49;;;;;;;6.03;4.20;;;;;;;15.74;100.00;100415.25;5005883;28;20029;-61
2023/07/01 05:35:14;;;;;;;6.55;3.70;;;;;;;15.74;100.00;100423.13;5006405;28;20061;-62
2023/07/01 05:37:40;;;;;;;6.43;4.00;;;;;;;15.75;100.00;100409.09;4998429;28;20032;-62
2023/07/01 05:40:06;;;;;;;5.90;4.05;;;;;;;15.74;100.00;100423.13;5006555;28;20024;-62
2023/07/01 05:42:31;;;;;;;7.25;4.40;;;;;;;15.70;100.00;100415.25;5006378;28;20089;-61
2023/07/01 05:44:56;;;;;;;6.22;3.90;;;;;;;15.68;100.00;100406.50;5007613;28;20112;-62
2023/07/01 05:47:22;;;;;;;7.78;4.57;;;;;;;15.66;100.00;100403.91;4987399;28;20022;-61
2023/07/01 05:49:47;;;;;;;5.55;3.58;;;;;;;15.71;100.00;100415.25;5004107;28;20021;-62
2023/07/01 05:52:12;;;;;;;5.85;3.88;;;;;;;15.73;100.00;100409.97;5005865;28;20120;-62
2023/07/01 05:54:38;;;;;;;5.53;3.88;;;;;;;15.72;100.00;100410.88;5006162;28;20049;-62
2023/07/01 05:57:03;;;;;;;6.38;3.78;;;;;;;15.74;100.00;100415.25;5006219;28;20037;-62
2023/07/01 05:59:29;;;;;;;6.18;4.20;;;;;;;15.68;100.00;100407.38;5005273;28;20120;-62
2023/07/01 06:01:54;;;;;;;7.13;4.20;;;;;;;15.66;100.00;100403.91;5005363;28;20417;-62
2023/07/01 06:04:20;;;;;;;6.28;4.28;;;;;;;15.68;100.00;100407.38;5006361;28;20034;-62
2023/07/01 06:06:45;;;;;;;6.38;4.25;;;;;;;15.71;100.00;100403.88;5004959;28;20021;-62
2023/07/01 06:09:10;;;;;;;6.35;4.28;;;;;;;15.72;100.00;100408.25;5005237;28;20473;-62
2023/07/01 06:11:36;;;;;;;6.50;4.50;;;;;;;15.71;100.00;100409.97;5004636;28;20116;-62
2023/07/01 06:14:01;;;;;;;7.07;4.60;;;;;;;15.73;100.00;100394.22;5005661;28;20048;-62
2023/07/01 06:16:26;;;;;;;6.50;4.20;;;;;;;15.76;100.00;100389.84;5005159;28;20065;-62
2023/07/01 06:18:52;;;;;;;7.40;4.32;;;;;;;15.84;100.00;100388.97;5005259;28;20025;-63
2023/07/01 06:21:19;;;;;;;6.63;4.05;;;;;;;15.88;100.00;100386.28;5004712;28;20033;-63
2023/07/01 06:23:44;;;;;;;6.30;4.15;;;;;;;15.95;100.00;100390.63;5003308;28;20026;-62
2023/07/01 06:26:10;;;;;;;6.18;4.18;;;;;;;15.99;100.00;100391.50;5004327;28;20087;-63
2023/07/01 06:28:35;;;;;;;7.15;4.32;;;;;;;15.96;100.00;100392.38;5000966;28;20061;-62
2023/07/01 06:31:00;;;;;;;5.30;4.10;;;;;;;15.95;100.00;100385.38;5003142;28;20521;-63
2023/07/01 06:33:25;;;;;;;6.93;4.50;;;;;;;15.92;100.00;100389.78;5002696;28;20088;-63
2023/07/01 06:35:51;;;;;;;5.78;4.28;;;;;;;15.93;100.00;100389.78;5005481;28;20506;-62
2023/07/01 06:38:16;;;;;;;7.78;4.43;;;;;;;15.93;100.00;100389.78;5003778;28;20117;-63
2023/07/01 06:40:42;;;;;;;6.15;4.20;;;;;;;15.96;100.00;100383.63;5005683;28;20104;-63
2023/07/01 06:43:07;;;;;;;6.30;4.30;;;;;;;15.97;100.00;100388.88;5004491;28;20045;-63
2023/07/01 06:45:32;;;;;;;7.47;4.50;;;;;;;16.00;100.00;100395.84;5004760;28;21541;-63
2023/07/01 06:47:58;;;;;;;6.55;4.55;;;;;;;15.97;100.00;100383.63;5005513;28;20116;-62
2023/07/01 06:50:23;;;;;;;5.63;4.35;;;;;;;16.01;100.00;100383.63;4983235;28;20040;-63
2023/07/01 06:52:49;;;;;;;7.85;4.90;;;;;;;15.99;100.00;100386.25;5001767;28;20072;-62
2023/07/01 06:55:15;;;;;;;6.78;4.15;;;;;;;15.98;100.00;100387.13;5002936;28;20036;-63
2023/07/01 06:57:40;;;;;;;6.57;4.50;;;;;;;15.94;100.00;100383.63;5002842;28;20117;-62
2023/07/01 07:00:09;;;;;;;6.88;4.70;;;;;;;15.96;100.00;100386.25;5004202;28;20061;-63
2023/07/01 07:02:34;;;;;;;7.05;4.20;;;;;;;15.96;100.00;100387.13;5006132;28;20025;-63
2023/07/01 07:05:00;;;;;;;5.50;3.95;;;;;;;16.03;100.00;100393.19;5001835;28;20497;-63
2023/07/01 07:07:25;;;;;;;7.05;4.57;;;;;;;16.03;100.00;100387.09;4982174;28;20500;-63
2023/07/01 07:09:50;;;;;;;6.35;4.05;;;;;;;16.03;100.00;100387.94;5004729;28;20029;-63
2023/07/01 07:12:16;;;;;;;5.78;4.47;;;;;;;16.05;100.00;100380.94;5004889;28;20104;-64
2023/07/01 07:14:41;;;;;;;7.15;4.00;;;;;;;16.10;100.00;100386.16;5002747;28;20372;-63
2023/07/01 07:17:06;;;;;;;5.90;3.67;;;;;;;16.12;100.00;100387.00;5003382;28;20028;-64
2023/07/01 07:19:32;;;;;;;6.55;3.65;;;;;;;16.18;100.00;100387.00;5005737;28;20133;-63
2023/07/01 07:21:57;;;;;;;6.60;4.05;;;;;;;16.20;100.00;100387.00;5004031;28;20026;-63
2023/07/01 07:24:22;;;;;;;6.80;4.30;;;;;;;16.17;100.00;100380.00;5005422;28;20026;-63
2023/07/01 07:27:00;;;;;;;6.65;3.83;;;;;;;16.21;100.00;100379.09;5004601;28;20034;-64
2023/07/01 07:29:29;;;;;;;7.65;4.07;;;;;;;16.20;100.00;100379.09;5000313;28;20056;-63
2023/07/01 07:31:55;;;;;;;5.50;3.80;;;;;;;16.23;100.00;100379.06;4981642;28;20046;-63
2023/07/01 07:34:21;;;;;;;7.75;4.32;;;;;;;16.25;100.00;100375.56;4979487;28;20028;-63
2023/07/01 07:36:46;;;;;;;6.82;4.30;;;;;;;16.29;100.00;100371.13;4983324;28;20030;-64
2023/07/01 07:39:14;;;;;;;8.68;4.20;;;;;;;16.28;100.00;100374.63;4983570;28;20532;-63
2023/07/01 07:41:41;;;;;;;6.90;4.32;;;;;;;16.29;100.00;100373.75;5036433;23;20057;-95
2023/07/01 07:44:07;;;;;;;5.93;3.90;;;;;;;16.32;100.00;100379.00;4997019;28;20675;-95
2023/07/01 07:46:33;;;;;;;7.78;4.38;;;;;;;16.30;100.00;100370.25;4993811;28;20026;-96
2023/07/01 07:49:01;;;;;;;6.05;3.92;;;;;;;16.30;100.00;100365.88;4999549;28;20036;-96
2023/07/01 07:51:30;;;;;;;6.93;4.00;;;;;;;16.36;100.00;100372.84;5000790;28;20453;-95
2023/07/01 07:53:58;;;;;;;5.90;3.80;;;;;;;16.38;100.00;100362.28;4998499;28;20022;-96
2023/07/01 07:56:29;;;;;;;6.30;3.95;;;;;;;16.45;100.00;100370.16;5000465;28;20038;-95
2023/07/01 07:58:58;;;;;;;5.85;3.97;;;;;;;16.43;100.00;100361.38;5000356;28;20040;-96
2023/07/01 08:01:23;;;;;;;5.90;4.13;;;;;;;16.44;100.00;100357.88;4996412;28;20394;-95
2023/07/01 08:03:49;;;;;;;5.90;3.75;;;;;;;16.45;100.00;100354.38;4999883;28;20025;-95
2023/07/01 08:06:26;;;;;;;8.35;4.55;;;;;;;16.47;100.00;100359.63;4999637;28;20753;-95
2023/07/01 08:08:54;;;;;;;7.20;4.07;;;;;;;16.54;100.00;100360.41;5000533;28;20087;-94
2023/07/01 08:11:25;;;;;;;8.00;4.40;;;;;;;16.57;100.00;100356.00;5000783;28;20551;-95
2023/07/01 08:14:02;;;;;;;8.50;4.55;;;;;;;16.61;100.00;100348.94;4999980;28;20025;-96
2023/07/01 08:16:45;;;;;;;5.53;3.97;;;;;;;16.65;100.00;100364.69;4999707;28;20084;-95
2023/07/01 08:19:10;;;;;;;5.65;3.65;;;;;;;16.67;100.00;100354.19;5000241;28;20033;-95
2023/07/01 08:21:38;;;;;;;7.30;4.30;;;;;;;16.70;100.00;100351.50;5001307;28;20034;-95
2023/07/01 08:26:56;;;;;;;6.28;3.60;;;;;;;16.85;100.00;100353.97;5018093;28;20042;-95
2023/07/01 08:29:30;;;;;;;5.82;3.55;;;;;;;16.85;100.00;100353.09;4999135;28;20053;-96
2023/07/01 08:31:59;;;;;;;6.47;3.42;;;;;;;16.85;100.00;100358.38;4999903;28;20060;-95
2023/07/01 08:34:56;;;;;;;5.93;3.38;;;;;;;16.91;100.00;100353.06;5000684;28;20027;-95
2023/07/01 08:37:26;;;;;;;5.57;3.35;;;;;;;16.89;100.00;100346.97;5001224;28;20453;-96
2023/07/01 08:39:57;;;;;;;5.43;3.20;;;;;;;16.92;100.00;100354.81;5001940;28;20041;-96
2023/07/01 08:42:52;;;;;;;6.97;3.63;;;;;;;16.92;100.00;100344.28;5001667;28;20053;-96
2023/07/01 08:45:41;;;;;;;5.22;3.08;;;;;;;16.94;100.00;100353.03;5001535;28;20049;-96
2023/07/01 08:48:09;;;;;;;5.15;3.20;;;;;;;16.97;100.00;100352.13;5000258;28;20108;-95
2023/07/01 08:50:54;;;;;;;4.47;2.70;;;;;;;16.96;100.00;100345.13;5000227;28;20444;-96
2023/07/01 08:53:23;;;;;;;5.18;3.30;;;;;;;16.97;100.00;100342.47;4999267;28;20036;-96
2023/07/01 08:55:59;;;;;;;5.68;2.85;;;;;;;17.02;100.00;100345.06;4999845;28;20073;-96
2023/07/01 08:58:31;;;;;;;4.18;2.65;;;;;;;17.07;100.00;100352.91;5002064;28;20091;-96
2023/07/01 09:00:59;;;;;;;3.78;2.40;;;;;;;17.08;100.00;100339.75;4999116;28;21193;-96
2023/07/01 09:03:26;;;;;;;5.30;2.78;;;;;;;17.12;100.00;100346.72;4999459;28;20065;-96
2023/07/01 09:06:02;;;;;;;4.65;2.30;;;;;;;17.16;100.00;100337.00;5000650;28;20032;-96
2023/07/01 09:08:30;;;;;;;5.28;2.70;;;;;;;17.17;100.00;100342.25;4999606;28;20029;-96
2023/07/01 09:11:19;;;;;;;4.07;2.35;;;;;;;17.20;100.00;100344.84;5003847;28;20064;-96
2023/07/01 09:13:45;;;;;;;;;;;;;;;17.27;100.00;100347.44;4991222;28;20571;-96
2023/07/01 09:16:35;;;;;;;4.47;2.40;;;;;;;17.30;100.00;100347.38;5000815;28;20371;-96
2023/07/01 09:19:16;;;;;;;4.22;2.30;;;;;;;17.32;100.00;100349.13;4997788;28;20026;-96
2023/07/01 09:21:42;;;;;;;4.20;2.50;;;;;;;17.32;100.00;100342.97;4998545;28;20033;-96
2023/07/01 09:24:12;;;;;;;4.35;2.50;;;;;;;17.32;100.00;100342.97;5001393;28;20022;-96
2023/07/01 09:26:53;;;;;;;4.32;2.38;;;;;;;17.42;100.00;100347.22;4997181;28;20117;-96
2023/07/01 09:29:21;;;;;;;4.10;2.40;;;;;;;17.43;100.00;100333.16;4999232;28;20021;-96
2023/07/01 09:31:57;;;;;;;4.57;2.50;;;;;;;17.52;100.00;100330.44;5000691;28;20045;-96
2023/07/01 09:34:24;;;;;;;4.18;2.90;;;;;;;17.57;100.00;100335.63;5113245;23;20026;-60
2023/07/01 09:36:49;;;;;;;4.00;2.40;;;;;;;17.69;100.00;100334.59;5164266;23;20065;-63
2023/07/01 09:39:30;;;;;;;4.00;2.55;;;;;;;17.66;100.00;100332.00;4974389;28;20429;-63
2023/07/01 09:42:04;;;;;;;4.85;2.75;;;;;;;17.65;100.00;100330.25;5359575;23;20201;-61
2023/07/01 09:47:05;;;;;;;6.68;3.17;;;;;;;17.71;100.00;100324.88;5170967;23;20440;-61
2023/07/01 09:49:40;;;;;;;4.97;3.08;;;;;;;17.72;100.00;100322.22;5005655;28;20527;-62
2023/07/01 09:52:06;;;;;;;5.85;3.38;;;;;;;17.74;100.00;100319.56;5009735;28;20631;-62
2023/07/01 09:54:32;;;;;;;5.03;3.13;;;;;;;17.81;100.00;100321.22;5010527;28;20045;-62
2023/07/01 09:56:59;;;;;;;3.97;2.58;;;;;;;17.82;100.00;100328.25;5011955;28;20033;-61
2023/07/01 09:59:25;;;;;;;7.63;3.78;;;;;;;17.76;100.00;100323.06;5012635;28;20505;-61
2023/07/01 10:02:01;;;;;;;5.28;3.33;;;;;;;17.73;100.00;100320.47;5010044;28;20376;-61
2023/07/01 10:04:28;;;;;;;6.10;3.10;;;;;;;17.75;100.00;100318.69;5012016;28;20088;-62
2023/07/01 10:06:54;;;;;;;4.68;3.08;;;;;;;17.80;100.00;100322.13;5011979;28;20030;-62
2023/07/01 10:09:19;;;;;;;5.43;3.28;;;;;;;17.75;100.00;100321.31;5013669;28;20029;-62
2023/07/01 10:11:45;;;;;;;6.90;3.10;;;;;;;17.79;100.00;100327.44;5013176;28;20029;-62
2023/07/01 10:14:11;;;;;;;6.30;3.30;;;;;;;17.82;100.00;100317.69;5007048;28;20112;-62
2023/07/01 10:16:49;;;;;;;6.95;3.53;;;;;;;17.90;100.00;100314.97;5010618;28;20492;-62
2023/07/01 10:19:28;;;;;;;5.55;2.70;;;;;;;17.96;100.00;100316.63;5012114;28;20038;-62
2023/07/01 10:22:13;;;;;;;5.57;2.70;;;;;;;17.99;100.00;100314.00;5014333;28;20031;-62
2023/07/01 10:24:39;;;;;;;6.07;3.33;;;;;;;18.01;100.00;100305.13;5010538;28;20038;-62
2023/07/01 10:29:34;;;;;;;;;;;;;;;18.09;100.00;100310.31;5070751;22;20429;-63
2023/07/01 10:34:52;;;;;;;5.93;3.22;;;;;;;18.13;100.00;100314.59;4988249;28;20049;-64
2023/07/01 10:37:18;;;;;;;5.68;3.45;;;;;;;18.16;100.00;100309.31;5012828;23;20042;-63
2023/07/01 10:39:44;;;;;;;10.88;5.38;;;;;;;18.19;100.00;100311.00;5257300;22;20051;-64
2023/07/01 10:42:33;;;;;;;14.80;11.00;;;;;;;18.18;100.00;100310.13;4996046;28;20034;-63
2023/07/01 10:45:10;;;;;;;7.22;4.28;;;;;;;18.23;100.00;100312.69;4996114;28;20033;-63
2023/07/01 10:47:36;;;;;;;7.80;4.43;;;;;;;18.33;100.00;100308.16;4995765;28;20037;-63
2023/07/01 10:50:06;;;;;;;9.43;4.40;;;;;;;18.39;100.00;100308.94;4996728;28;20103;-63
2023/07/01 10:52:32;;;;;;;8.95;5.00;;;;;;;18.45;100.00;100309.69;4996855;28;20086;-63
2023/07/01 10:54:59;;;;;;;8.88;5.28;;;;;;;18.51;100.00;100310.47;4995802;28;20179;-64
2023/07/01 10:57:25;;;;;;;10.07;5.00;;;;;;;18.59;100.00;100300.63;4996251;28;20030;-64
2023/07/01 10:59:50;;;;;;;9.35;5.13;;;;;;;18.67;100.00;100307.53;4997921;28;20393;-65
2023/07/01 11:02:36;;;;;;;11.73;4.95;;;;;;;18.71;100.00;100306.59;4997269;28;20389;-65
2023/07/01 11:05:06;;;;;;;9.82;5.10;;;;;;;18.81;100.00;100299.38;4997705;28;20029;-66
2023/07/01 11:07:31;;;;;;;9.93;4.80;;;;;;;18.81;100.00;100304.66;4998458;28;20029;-65
2023/07/01 11:09:58;;;;;;;10.77;5.75;;;;;;;18.83;100.00;100303.72;4998069;28;20025;-66
2023/07/01 11:12:24;;;;;;;10.07;5.05;;;;;;;18.94;100.00;100309.72;4996546;28;20069;-64
2023/07/01 11:14:52;;;;;;;10.45;6.00;;;;;;;19.02;100.00;100300.75;4994761;28;20022;-65
2023/07/01 11:17:20;;;;;;;10.15;4.97;;;;;;;19.06;100.00;100300.66;4996584;28;20034;-65
2023/07/01 11:19:52;;;;;;;9.85;5.20;;;;;;;19.21;100.00;100299.47;4996077;28;20037;-65
2023/07/01 11:22:17;;;;;;;10.90;6.00;;;;;;;19.39;100.00;100289.41;4995464;28;20348;-64
2023/07/01 11:24:43;;;;;;;10.52;5.57;;;;;;;19.35;100.00;100290.38;4996403;28;20282;-64
2023/07/01 11:27:09;;;;;;;11.60;5.90;;;;;;;19.45;100.00;100294.53;5002941;28;20397;-65
2023/07/01 11:29:35;;;;;;;10.20;5.38;;;;;;;19.41;100.00;100291.13;5002377;28;20026;-65
2023/07/01 11:32:02;;;;;;;14.02;6.65;;;;;;;19.49;100.00;100283.00;5004601;28;20067;-65
2023/07/01 11:34:28;;;;;;;14.02;6.75;;;;;;;19.46;100.00;100283.09;5020524;28;20113;-65
2023/07/01 11:36:54;;;;;;;12.32;6.55;;;;;;;19.49;100.00;100282.16;5022003;28;20105;-68
2023/07/01 11:39:21;;;;;;;11.55;6.00;;;;;;;19.56;100.00;100286.41;5021432;28;20141;-65
2023/07/01 11:41:50;;;;;;;11.93;6.30;;;;;;;19.61;100.00;100282.75;5020898;28;20040;-65
2023/07/01 11:44:18;;;;;;;10.93;5.82;;;;;;;19.59;100.00;100284.53;5018658;28;20033;-64